CYEG/YEG METAR and TAF weather

Enter ICAO airport designator
Station Type Date Time Source
CYEG METAR 2021/03/08 13:00 UTC NOAA

CYEG 081300Z 01003KT 20SM FEW090 BKN120 OVC200 M04/M07 A2996 RMK AC1AC6CI1 VIRGA PTCHS SLP180


Station Type Date Time Source
CYEG Decoded METAR 2021/03/08 13:00 UTC NOAA

Edmonton International, Alta., Canada (CYEG) 53-18N 113-35W 723M
Mar 08, 2021 - 08:00 AM EST / 2021.03.08 1300 UTC
Wind: from the N (010 degrees) at 3 MPH (3 KT):0
Visibility: 20 mile(s):0
Sky conditions: overcast
Temperature: 24 F (-4 C)
Dew Point: 19 F (-7 C)
Relative Humidity: 79%
Pressure (altimeter): 29.96 in. Hg (1014 hPa)
ob: CYEG 081300Z 01003KT 20SM FEW090 BKN120 OVC200 M04/M07 A2996 RMK AC1AC6CI1 VIRGA PTCHS SLP180
cycle: 13

Station Type Date Time Source
CYEG TAF 2021/03/08 12:39 UTC NOAA

TAF TAF CYEG 081138Z 0812/0912 34005KT P6SM SCT070 BKN120 OVC220
TEMPO 0812/0815 P6SM -SHSN SCT040 BKN070 OVC120
FM081500 36005KT 6SM -SHSN OVC040
TEMPO 0815/0818 2SM -SHSN OVC020
BECMG 0816/0818 03007KT
FM082100 03007KT P6SM -SHSN OVC030
TEMPO 0821/0904 3SM -SHSN SCT008 OVC015
BECMG 0902/0904 10005KT
FM090400 10005KT 6SM -SN OVC012
TEMPO 0904/0912 2SM -SN BR OVC008 PROB30 0904/0912 1SM -FZDZ BR OVC004
RMK NXT FCST BY 081500Z

Example: see airport list